createdAt,value
2018-05-06T00:00:00.870Z,15.99
2018-05-06T00:02:30.440Z,15.83
2018-05-06T00:05:00.372Z,15.63
2018-05-06T00:07:29.910Z,15.58
2018-05-06T00:09:59.422Z,15.59
2018-05-06T00:12:29.028Z,15.59
2018-05-06T00:14:58.540Z,15.74
2018-05-06T00:17:28.122Z,15.82
2018-05-06T00:19:57.891Z,15.94
2018-05-06T00:22:27.860Z,15.93
2018-05-06T00:24:57.387Z,15.85
2018-05-06T00:27:26.957Z,15.78
2018-05-06T00:29:56.504Z,15.95
2018-05-06T00:32:26.050Z,15.85
2018-05-06T00:34:55.625Z,15.79
2018-05-06T00:37:25.156Z,15.68
2018-05-06T00:39:54.691Z,15.54
2018-05-06T00:42:24.031Z,15.48
2018-05-06T00:44:53.561Z,15.39
2018-05-06T00:47:23.748Z,15.24
2018-05-06T00:49:53.280Z,15.14
2018-05-06T00:52:23.267Z,15.13
2018-05-06T00:54:53.618Z,15.15
2018-05-06T00:57:23.163Z,15.27
2018-05-06T00:59:52.695Z,15.39
2018-05-06T01:02:22.245Z,15.32
2018-05-06T01:04:52.221Z,15.28
2018-05-06T01:07:21.561Z,15.34
2018-05-06T01:09:51.488Z,15.30
2018-05-06T01:12:21.238Z,15.21
2018-05-06T01:14:50.953Z,15.14
2018-05-06T01:17:20.494Z,15.09
2018-05-06T01:19:50.008Z,15.08
2018-05-06T01:22:19.520Z,15.04
2018-05-06T01:24:49.436Z,14.91
2018-05-06T01:27:19.370Z,14.83
2018-05-06T01:29:48.896Z,14.70
2018-05-06T01:32:18.220Z,14.59
2018-05-06T01:34:47.900Z,14.49
2018-05-06T01:37:17.419Z,14.46
2018-05-06T01:39:46.940Z,14.38
2018-05-06T01:42:16.466Z,14.38
2018-05-06T01:44:46.069Z,14.24
2018-05-06T01:47:15.614Z,14.18
2018-05-06T01:49:45.532Z,14.07
2018-05-06T01:52:15.069Z,13.99
2018-05-06T01:54:44.426Z,13.99
2018-05-06T01:57:14.938Z,14.02
2018-05-06T01:59:44.478Z,14.00
2018-05-06T02:02:13.993Z,13.95
2018-05-06T02:04:43.520Z,13.83
2018-05-06T02:07:13.104Z,13.70
2018-05-06T02:09:42.623Z,13.70
2018-05-06T02:12:12.154Z,13.67
2018-05-06T02:14:41.684Z,13.56
2018-05-06T02:17:11.238Z,13.54
2018-05-06T02:19:40.757Z,13.50
2018-05-06T02:22:10.282Z,13.42
2018-05-06T02:24:39.831Z,13.57
2018-05-06T02:27:09.749Z,13.50
2018-05-06T02:29:39.686Z,13.45
2018-05-06T02:32:08.973Z,13.28
2018-05-06T02:34:38.281Z,13.12
2018-05-06T02:37:07.831Z,13.19
2018-05-06T02:39:37.359Z,13.26
2018-05-06T02:42:07.475Z,13.27
2018-05-06T02:44:37.132Z,13.30
2018-05-06T02:47:06.662Z,13.30
2018-05-06T02:49:36.221Z,13.40
2018-05-06T02:52:06.500Z,13.50
2018-05-06T02:54:36.237Z,13.58
2018-05-06T02:57:05.831Z,13.54
2018-05-06T02:59:35.132Z,13.49
2018-05-06T03:02:04.435Z,13.28
2018-05-06T03:04:33.975Z,13.19
2018-05-06T03:07:03.483Z,13.13
2018-05-06T03:09:33.010Z,13.11
2018-05-06T03:12:02.529Z,13.29
2018-05-06T03:14:32.074Z,13.45
2018-05-06T03:17:01.999Z,13.53
2018-05-06T03:19:31.915Z,13.55
2018-05-06T03:22:01.926Z,13.59
2018-05-06T03:24:31.518Z,13.64
2018-05-06T03:27:01.087Z,13.74
2018-05-06T03:29:30.651Z,13.62
2018-05-06T03:32:00.601Z,13.58
2018-05-06T03:34:30.259Z,13.58
2018-05-06T03:37:00.415Z,13.66
2018-05-06T03:39:29.943Z,13.74
2018-05-06T03:41:59.476Z,13.62
2018-05-06T03:44:29.027Z,13.55
2018-05-06T03:46:58.559Z,13.60
2018-05-06T03:49:28.107Z,13.63
2018-05-06T03:51:57.633Z,13.66
2018-05-06T03:54:27.579Z,13.71
2018-05-06T03:57:14.637Z,13.81
2018-05-06T04:02:57.907Z,13.88
2018-05-06T04:05:27.417Z,13.86
2018-05-06T04:07:57.341Z,13.86
2018-05-06T04:10:27.315Z,13.91
2018-05-06T04:12:56.843Z,13.98
2018-05-06T04:15:26.363Z,13.99
2018-05-06T04:17:56.745Z,14.07
2018-05-06T04:20:26.321Z,14.05
2018-05-06T04:22:55.831Z,14.13
2018-05-06T04:25:25.363Z,14.10
2018-05-06T04:27:54.899Z,14.01
2018-05-06T04:30:24.191Z,13.84
2018-05-06T04:32:53.473Z,14.04
2018-05-06T04:35:23.017Z,14.11
2018-05-06T04:37:53.015Z,14.18
2018-05-06T04:40:22.573Z,14.25
2018-05-06T04:42:52.086Z,14.00
2018-05-06T04:45:21.619Z,14.01
2018-05-06T04:47:51.151Z,13.93
2018-05-06T04:50:20.874Z,13.82
2018-05-06T04:52:50.777Z,13.93
2018-05-06T04:55:20.291Z,14.05
2018-05-06T04:57:50.209Z,14.24
2018-05-06T05:00:20.122Z,14.23
2018-05-06T05:02:50.078Z,14.27
2018-05-06T05:05:20.295Z,14.36
2018-05-06T05:07:49.844Z,14.54
2018-05-06T05:10:19.357Z,14.79
2018-05-06T05:12:48.964Z,14.54
2018-05-06T05:15:18.678Z,14.53
2018-05-06T05:17:48.194Z,14.35
2018-05-06T05:20:17.937Z,14.22
2018-05-06T05:22:47.420Z,14.16
2018-05-06T05:25:17.340Z,14.15
2018-05-06T05:27:47.253Z,14.08
2018-05-06T05:30:17.173Z,14.12
2018-05-06T05:35:30.743Z,14.06
2018-05-06T05:38:00.643Z,14.09
2018-05-06T05:40:30.591Z,14.11
2018-05-06T05:43:00.127Z,14.11
2018-05-06T05:45:29.475Z,14.18
2018-05-06T05:47:59.092Z,14.17
2018-05-06T05:50:28.753Z,14.30
2018-05-06T05:52:58.282Z,14.29
2018-05-06T05:55:28.259Z,14.30
2018-05-06T05:57:58.347Z,14.26
2018-05-06T06:00:27.871Z,14.27
2018-05-06T06:02:57.450Z,14.30
2018-05-06T06:05:27.000Z,14.30
2018-05-06T06:07:56.296Z,14.28
2018-05-06T06:10:25.915Z,14.37
2018-05-06T06:12:55.430Z,14.32
2018-05-06T06:15:24.988Z,14.46
2018-05-06T06:17:54.508Z,14.51
2018-05-06T06:20:24.032Z,14.47
2018-05-06T06:22:53.234Z,14.59
2018-05-06T06:25:22.756Z,14.59
2018-05-06T06:27:52.287Z,14.69
2018-05-06T06:30:22.212Z,14.72
2018-05-06T06:32:51.770Z,14.71
2018-05-06T06:35:21.460Z,14.74
2018-05-06T06:37:51.046Z,14.78
2018-05-06T06:40:20.270Z,14.85
2018-05-06T06:42:49.819Z,14.81
2018-05-06T06:45:19.378Z,14.88
2018-05-06T06:47:48.898Z,14.86
2018-05-06T06:50:18.484Z,14.75
2018-05-06T06:52:48.088Z,14.83
2018-05-06T06:55:17.448Z,14.88
2018-05-06T06:57:47.608Z,14.84
2018-05-06T07:00:17.134Z,14.85
2018-05-06T07:02:46.660Z,14.89
2018-05-06T07:05:16.193Z,15.04
2018-05-06T07:07:46.124Z,15.05
2018-05-06T07:10:15.646Z,15.06
2018-05-06T07:12:45.214Z,15.09
2018-05-06T07:15:15.134Z,15.02
2018-05-06T07:17:45.069Z,15.07
2018-05-06T07:20:15.307Z,15.07
2018-05-06T07:22:44.845Z,15.08
2018-05-06T07:25:14.396Z,15.16
2018-05-06T07:27:43.996Z,15.18
2018-05-06T07:30:13.900Z,15.21
2018-05-06T07:32:43.662Z,15.31
2018-05-06T07:35:13.254Z,15.38
2018-05-06T07:37:42.914Z,15.34
2018-05-06T07:40:12.476Z,15.44
2018-05-06T07:42:41.984Z,15.46
2018-05-06T07:45:12.096Z,15.45
2018-05-06T07:47:41.626Z,15.50
2018-05-06T07:50:11.771Z,15.59
2018-05-06T07:52:41.305Z,15.59
2018-05-06T07:55:11.620Z,15.56
2018-05-06T07:57:41.546Z,15.60
2018-05-06T08:00:11.760Z,15.58
2018-05-06T08:02:41.702Z,15.51
2018-05-06T08:05:11.232Z,15.60
2018-05-06T08:11:14.006Z,15.68
2018-05-06T08:13:44.474Z,15.88
2018-05-06T08:16:14.025Z,15.81
2018-05-06T08:18:43.739Z,15.81
2018-05-06T08:21:14.432Z,15.82
2018-05-06T08:23:43.978Z,15.90
2018-05-06T08:26:13.910Z,15.84
2018-05-06T08:28:43.432Z,15.85
2018-05-06T08:31:13.059Z,15.89
2018-05-06T08:33:43.156Z,15.88
2018-05-06T08:36:12.879Z,15.83
2018-05-06T08:38:42.435Z,15.92
2018-05-06T08:41:12.386Z,16.04
2018-05-06T08:43:41.929Z,15.95
2018-05-06T08:46:11.485Z,16.02
2018-05-06T08:48:41.448Z,16.02
2018-05-06T08:51:11.010Z,16.20
2018-05-06T08:53:40.528Z,16.25
2018-05-06T08:56:10.051Z,16.16
2018-05-06T08:58:39.574Z,16.14
2018-05-06T09:01:09.129Z,16.18
2018-05-06T09:03:39.119Z,16.34
2018-05-06T09:06:08.655Z,16.37
2018-05-06T09:08:38.217Z,16.48
2018-05-06T09:11:07.810Z,16.66
2018-05-06T09:13:37.508Z,16.69
2018-05-06T09:16:07.098Z,16.66
2018-05-06T09:18:36.623Z,16.58
2018-05-06T09:21:06.197Z,16.72
2018-05-06T09:23:36.122Z,16.71
2018-05-06T09:26:05.631Z,16.59
2018-05-06T09:28:35.158Z,16.76
2018-05-06T09:31:04.477Z,17.05
2018-05-06T09:33:33.799Z,16.94
2018-05-06T09:36:03.306Z,17.00
2018-05-06T09:38:32.837Z,17.06
2018-05-06T09:41:02.459Z,17.23
2018-05-06T09:43:31.998Z,17.40
2018-05-06T09:46:01.610Z,17.56
2018-05-06T09:48:31.155Z,17.64
2018-05-06T09:51:01.085Z,17.79
2018-05-06T09:53:30.623Z,17.73
2018-05-06T09:56:00.168Z,17.88
2018-05-06T09:58:29.737Z,17.95
2018-05-06T10:00:59.279Z,17.92
2018-05-06T10:03:28.800Z,18.13
2018-05-06T10:05:58.762Z,18.09
2018-05-06T10:08:28.407Z,18.92
2018-05-06T10:10:57.943Z,19.28
2018-05-06T10:13:27.885Z,19.04
2018-05-06T10:15:57.409Z,19.10
2018-05-06T10:18:26.963Z,19.02
2018-05-06T10:20:56.907Z,19.50
2018-05-06T10:23:26.436Z,19.37
2018-05-06T10:25:55.811Z,19.67
2018-05-06T10:28:25.375Z,19.23
2018-05-06T10:30:54.919Z,19.31
2018-05-06T10:33:24.511Z,19.73
2018-05-06T10:35:54.511Z,19.75
2018-05-06T10:38:24.034Z,19.52
2018-05-06T10:40:54.171Z,19.85
2018-05-06T10:43:23.703Z,20.46
2018-05-06T10:45:53.300Z,20.17
2018-05-06T10:48:23.113Z,19.99
2018-05-06T10:50:52.663Z,20.02
2018-05-06T10:53:22.222Z,20.23
2018-05-06T10:55:51.810Z,20.64
2018-05-06T10:58:21.628Z,20.71
2018-05-06T11:00:51.792Z,20.38
2018-05-06T11:03:21.551Z,20.36
2018-05-06T11:05:51.521Z,20.41
2018-05-06T11:08:20.799Z,20.44
2018-05-06T11:10:50.390Z,21.07
2018-05-06T11:13:20.517Z,20.82
2018-05-06T11:15:51.009Z,20.73
2018-05-06T11:18:20.641Z,20.83
2018-05-06T11:20:50.791Z,20.92
2018-05-06T11:23:21.317Z,21.16
2018-05-06T11:25:51.859Z,21.36
2018-05-06T11:28:21.984Z,21.10
2018-05-06T11:30:52.208Z,21.23
2018-05-06T11:33:22.347Z,21.36
2018-05-06T11:35:52.456Z,21.83
2018-05-06T11:38:22.646Z,22.12
2018-05-06T11:40:53.226Z,22.13
2018-05-06T11:43:23.712Z,22.33
2018-05-06T11:45:54.203Z,22.24
2018-05-06T11:48:24.330Z,22.20
2018-05-06T11:50:54.426Z,22.15
2018-05-06T11:53:24.562Z,22.24
2018-05-06T11:55:54.660Z,22.36
2018-05-06T11:58:24.767Z,22.30
2018-05-06T12:00:54.886Z,22.19
2018-05-06T12:03:25.015Z,22.53
2018-05-06T12:05:55.117Z,22.39
2018-05-06T12:08:25.296Z,22.76
2018-05-06T12:10:55.441Z,23.09
2018-05-06T12:13:25.945Z,22.91
2018-05-06T12:15:56.556Z,22.86
2018-05-06T12:18:27.254Z,22.93
2018-05-06T12:20:57.443Z,23.05
2018-05-06T12:23:27.728Z,22.73
2018-05-06T12:25:57.917Z,22.93
2018-05-06T12:28:28.095Z,23.19
2018-05-06T12:30:58.237Z,23.07
2018-05-06T12:33:28.765Z,23.37
2018-05-06T12:35:58.861Z,23.47
2018-05-06T12:38:29.027Z,23.39
2018-05-06T12:40:59.125Z,23.49
2018-05-06T12:43:29.726Z,23.60
2018-05-06T12:46:00.014Z,23.43
2018-05-06T12:48:30.235Z,23.75
2018-05-06T12:51:00.419Z,23.64
2018-05-06T12:53:30.533Z,23.79
2018-05-06T12:56:00.663Z,23.70
2018-05-06T12:58:31.179Z,23.71
2018-05-06T13:01:01.276Z,23.95
2018-05-06T13:03:31.391Z,24.18
2018-05-06T13:06:01.636Z,24.14
2018-05-06T13:08:31.523Z,24.31
2018-05-06T13:11:01.685Z,24.31
2018-05-06T13:13:31.809Z,24.23
2018-05-06T13:16:02.358Z,24.28
2018-05-06T13:18:32.928Z,24.44
2018-05-06T13:21:03.110Z,24.33
2018-05-06T13:23:33.594Z,24.47
2018-05-06T13:26:03.709Z,24.58
2018-05-06T13:28:33.826Z,24.61
2018-05-06T13:31:04.550Z,24.74
2018-05-06T13:33:34.755Z,24.83
2018-05-06T13:36:04.965Z,24.44
2018-05-06T13:38:35.116Z,24.42
2018-05-06T13:41:04.827Z,24.58
2018-05-06T13:43:35.546Z,24.51
2018-05-06T13:46:05.673Z,24.67
2018-05-06T13:48:35.891Z,24.83
2018-05-06T13:51:05.785Z,24.90
2018-05-06T13:53:35.649Z,24.75
2018-05-06T13:56:05.739Z,24.66
2018-05-06T13:58:35.920Z,24.70
2018-05-06T14:01:06.285Z,24.77
2018-05-06T14:03:36.452Z,24.95
2018-05-06T14:06:06.324Z,25.18
2018-05-06T14:08:36.536Z,24.99
2018-05-06T14:11:06.691Z,25.08
2018-05-06T14:13:36.879Z,25.13
2018-05-06T14:16:06.967Z,25.29
2018-05-06T14:18:37.343Z,25.37
2018-05-06T14:21:07.219Z,25.41
2018-05-06T14:23:37.718Z,24.88
2018-05-06T14:26:08.759Z,24.91
2018-05-06T14:28:38.882Z,24.83
2018-05-06T14:31:09.012Z,24.87
2018-05-06T14:33:39.575Z,24.95
2018-05-06T14:36:10.136Z,25.05
2018-05-06T14:38:40.277Z,25.07
2018-05-06T14:41:10.411Z,24.94
2018-05-06T14:43:40.703Z,25.24
2018-05-06T14:49:16.533Z,25.23
2018-05-06T14:51:47.025Z,25.26
2018-05-06T14:54:17.181Z,25.22
2018-05-06T14:56:47.355Z,25.28
2018-05-06T14:59:17.531Z,25.27
2018-05-06T15:01:47.743Z,24.89
2018-05-06T15:04:18.277Z,25.01
2018-05-06T15:06:48.603Z,24.88
2018-05-06T15:09:19.069Z,24.92
2018-05-06T15:11:49.168Z,24.72
2018-05-06T15:14:37.243Z,24.73
2018-05-06T15:17:07.167Z,24.91
2018-05-06T15:19:37.983Z,24.65
2018-05-06T15:22:08.071Z,24.62
2018-05-06T15:24:38.168Z,24.74
2018-05-06T15:27:08.363Z,24.68
2018-05-06T15:29:38.521Z,24.56
2018-05-06T15:32:08.711Z,24.79
2018-05-06T15:34:38.876Z,24.82
2018-05-06T15:37:08.985Z,24.68
2018-05-06T15:39:39.183Z,24.66
2018-05-06T15:42:09.405Z,24.74
2018-05-06T15:44:39.563Z,24.72
2018-05-06T15:47:09.687Z,24.62
2018-05-06T15:49:39.780Z,24.57
2018-05-06T15:52:09.956Z,24.53
2018-05-06T15:54:39.741Z,24.69
2018-05-06T15:57:09.877Z,24.48
2018-05-06T15:59:40.000Z,24.50
2018-05-06T16:05:29.372Z,24.20
2018-05-06T16:07:59.758Z,24.18
2018-05-06T16:10:29.866Z,24.25
2018-05-06T16:12:59.980Z,24.21
2018-05-06T16:15:30.026Z,24.24
2018-05-06T16:18:00.102Z,24.02
2018-05-06T16:20:30.204Z,24.06
2018-05-06T16:23:00.334Z,24.01
2018-05-06T16:25:30.464Z,23.97
2018-05-06T16:28:01.328Z,23.81
2018-05-06T16:30:31.475Z,23.82
2018-05-06T16:33:01.956Z,23.80
2018-05-06T16:35:31.850Z,23.80
2018-05-06T16:38:01.947Z,23.81
2018-05-06T16:40:32.068Z,23.70
2018-05-06T16:43:02.577Z,23.55
2018-05-06T16:45:32.867Z,23.58
2018-05-06T16:48:03.285Z,23.61
2018-05-06T16:50:33.463Z,23.58
2018-05-06T16:53:03.254Z,23.53
2018-05-06T16:55:33.747Z,23.45
2018-05-06T16:58:03.884Z,23.44
2018-05-06T17:00:33.966Z,23.28
2018-05-06T17:03:04.102Z,23.28
2018-05-06T17:05:33.976Z,23.20
2018-05-06T17:08:04.484Z,23.18
2018-05-06T17:10:34.575Z,23.13
2018-05-06T17:13:04.472Z,23.13
2018-05-06T17:15:34.637Z,23.11
2018-05-06T17:18:04.736Z,22.99
2018-05-06T17:20:34.826Z,22.96
2018-05-06T17:23:05.014Z,22.86
2018-05-06T17:25:35.266Z,22.82
2018-05-06T17:28:05.462Z,22.77
2018-05-06T17:30:36.190Z,22.72
2018-05-06T17:33:06.783Z,22.70
2018-05-06T17:35:36.542Z,22.69
2018-05-06T17:38:07.115Z,22.59
2018-05-06T17:40:37.247Z,22.56
2018-05-06T17:43:07.396Z,22.47
2018-05-06T17:45:37.509Z,22.41
2018-05-06T17:48:08.027Z,22.42
2018-05-06T17:50:38.104Z,22.33
2018-05-06T17:53:08.740Z,22.28
2018-05-06T17:55:38.849Z,22.19
2018-05-06T17:58:08.944Z,22.07
2018-05-06T18:00:39.458Z,21.97
2018-05-06T18:03:10.082Z,21.94
2018-05-06T18:05:40.257Z,21.85
2018-05-06T18:08:10.428Z,21.80
2018-05-06T18:10:40.541Z,21.77
2018-05-06T18:13:10.648Z,21.67
2018-05-06T18:15:41.057Z,21.58
2018-05-06T18:18:11.173Z,21.48
2018-05-06T18:20:41.262Z,21.46
2018-05-06T18:23:11.848Z,21.38
2018-05-06T18:25:41.937Z,21.37
2018-05-06T18:28:12.059Z,21.21
2018-05-06T18:30:42.246Z,21.18
2018-05-06T18:33:12.316Z,21.11
2018-05-06T18:35:42.476Z,21.06
2018-05-06T18:38:13.044Z,20.94
2018-05-06T18:40:43.146Z,20.90
2018-05-06T18:43:13.643Z,20.80
2018-05-06T18:45:44.075Z,20.63
2018-05-06T18:48:14.662Z,20.54
2018-05-06T18:50:44.860Z,20.49
2018-05-06T18:53:14.966Z,20.35
2018-05-06T18:55:44.480Z,20.22
2018-05-06T18:58:14.018Z,20.16
2018-05-06T19:00:44.864Z,20.16
2018-05-06T19:03:14.887Z,20.08
2018-05-06T19:05:44.430Z,19.96
2018-05-06T19:08:14.218Z,19.84
2018-05-06T19:10:43.816Z,19.75
2018-05-06T19:13:13.754Z,19.72
2018-05-06T19:15:43.288Z,19.65
2018-05-06T19:18:12.880Z,19.51
2018-05-06T19:20:42.441Z,19.67
2018-05-06T19:23:12.365Z,19.61
2018-05-06T19:25:42.287Z,19.54
2018-05-06T19:28:12.234Z,19.55
2018-05-06T19:30:41.856Z,19.43
2018-05-06T19:33:11.364Z,19.35
2018-05-06T19:35:40.944Z,19.24
2018-05-06T19:38:10.477Z,19.10
2018-05-06T19:40:40.044Z,19.08
2018-05-06T19:43:09.666Z,18.92
2018-05-06T19:45:39.195Z,18.80
2018-05-06T19:48:08.782Z,18.77
2018-05-06T19:50:38.309Z,18.69
2018-05-06T19:53:07.915Z,18.62
2018-05-06T19:55:37.453Z,18.53
2018-05-06T19:58:07.399Z,18.49
2018-05-06T20:00:37.448Z,18.41
2018-05-06T20:03:07.027Z,18.35
2018-05-06T20:05:36.519Z,18.23
2018-05-06T20:08:06.464Z,18.22
2018-05-06T20:10:36.025Z,18.10
2018-05-06T20:13:05.571Z,17.97
2018-05-06T20:15:35.695Z,17.98
2018-05-06T20:18:05.239Z,17.74
2018-05-06T20:20:34.804Z,17.63
2018-05-06T20:23:04.445Z,17.52
2018-05-06T20:25:33.971Z,17.67
2018-05-06T20:28:03.546Z,17.62
2018-05-06T20:30:33.166Z,17.63
2018-05-06T20:33:03.172Z,17.57
2018-05-06T20:35:32.746Z,17.58
2018-05-06T20:38:02.278Z,17.58
2018-05-06T20:40:31.800Z,17.56
2018-05-06T20:43:01.309Z,17.41
2018-05-06T20:45:30.878Z,17.28
2018-05-06T20:48:00.438Z,17.29
2018-05-06T20:50:29.959Z,17.36
2018-05-06T20:52:59.896Z,17.37
2018-05-06T20:55:29.428Z,17.34
2018-05-06T20:57:58.950Z,17.33
2018-05-06T21:00:28.298Z,17.35
2018-05-06T21:02:58.035Z,17.19
2018-05-06T21:05:27.566Z,17.04
2018-05-06T21:07:57.092Z,16.94
2018-05-06T21:10:26.803Z,16.98
2018-05-06T21:12:56.498Z,16.95
2018-05-06T21:15:26.079Z,16.93
2018-05-06T21:17:55.612Z,16.90
2018-05-06T21:20:25.176Z,16.91
2018-05-06T21:22:54.691Z,16.97
2018-05-06T21:25:24.409Z,16.91
2018-05-06T21:27:53.937Z,16.96
2018-05-06T21:30:23.460Z,16.97
2018-05-06T21:32:53.026Z,17.02
2018-05-06T21:35:22.546Z,16.89
2018-05-06T21:37:52.113Z,16.82
2018-05-06T21:40:22.063Z,16.79
2018-05-06T21:42:52.359Z,16.72
2018-05-06T21:45:22.644Z,16.74
2018-05-06T21:47:52.972Z,16.72
2018-05-06T21:50:22.518Z,16.70
2018-05-06T21:52:52.538Z,16.65
2018-05-06T21:55:22.237Z,16.58
2018-05-06T21:57:52.205Z,16.47
2018-05-06T22:00:21.727Z,16.38
2018-05-06T22:02:51.752Z,16.34
2018-05-06T22:05:21.076Z,16.27
2018-05-06T22:07:51.037Z,16.22
2018-05-06T22:10:20.430Z,16.12
2018-05-06T22:12:50.017Z,16.11
2018-05-06T22:15:19.596Z,15.95
2018-05-06T22:17:49.653Z,15.90
2018-05-06T22:20:19.376Z,16.00
2018-05-06T22:22:48.970Z,15.98
2018-05-06T22:25:18.542Z,15.99
2018-05-06T22:27:48.118Z,15.96
2018-05-06T22:30:17.739Z,15.92
2018-05-06T22:32:47.353Z,15.91
2018-05-06T22:35:16.894Z,15.93
2018-05-06T22:37:46.413Z,15.85
2018-05-06T22:40:15.945Z,15.84
2018-05-06T22:42:45.496Z,15.78
2018-05-06T22:45:15.490Z,15.83
2018-05-06T22:47:45.135Z,15.76
2018-05-06T22:50:14.701Z,15.84
2018-05-06T22:52:44.044Z,15.77
2018-05-06T22:55:14.974Z,15.66
2018-05-06T22:57:45.158Z,15.51
2018-05-06T23:00:14.362Z,15.45
2018-05-06T23:02:43.968Z,15.43
2018-05-06T23:05:13.940Z,15.38
2018-05-06T23:07:43.535Z,15.38
2018-05-06T23:10:13.463Z,15.26
2018-05-06T23:12:42.796Z,15.31
2018-05-06T23:15:12.431Z,15.35
2018-05-06T23:17:41.967Z,15.39
2018-05-06T23:20:11.885Z,15.29
2018-05-06T23:22:41.820Z,15.11
2018-05-06T23:25:11.373Z,14.78
2018-05-06T23:27:41.078Z,14.63
2018-05-06T23:30:10.633Z,14.57
2018-05-06T23:32:40.176Z,14.46
2018-05-06T23:35:09.762Z,14.39
2018-05-06T23:37:39.324Z,14.19
2018-05-06T23:40:09.104Z,14.22
2018-05-06T23:42:38.755Z,14.26
2018-05-06T23:45:08.667Z,14.38
2018-05-06T23:47:38.844Z,14.47
2018-05-06T23:50:08.369Z,14.63
2018-05-06T23:52:37.887Z,14.80
2018-05-06T23:55:07.371Z,14.83
2018-05-06T23:57:36.966Z,14.90
